sensor_id;sensor_type;location;lat;lon;timestamp;P1;durP1;ratioP1;P2;durP2;ratioP2
58760;SDS011;44529;47.464;19.014;2023-02-15T00:00:00;43.38;;;27.98;;
58760;SDS011;44529;47.464;19.014;2023-02-15T00:03:06;45.38;;;29.42;;
58760;SDS011;44529;47.464;19.014;2023-02-15T00:06:08;43.30;;;28.38;;
58760;SDS011;44529;47.464;19.014;2023-02-15T00:09:11;40.50;;;26.33;;
58760;SDS011;44529;47.464;19.014;2023-02-15T00:12:14;44.78;;;27.70;;
58760;SDS011;44529;47.464;19.014;2023-02-15T00:15:18;41.72;;;27.95;;
58760;SDS011;44529;47.464;19.014;2023-02-15T00:18:20;41.67;;;27.52;;
58760;SDS011;44529;47.464;19.014;2023-02-15T00:21:23;42.70;;;27.67;;
58760;SDS011;44529;47.464;19.014;2023-02-15T00:24:25;44.33;;;27.05;;
58760;SDS011;44529;47.464;19.014;2023-02-15T00:27:28;42.75;;;26.33;;
58760;SDS011;44529;47.464;19.014;2023-02-15T00:30:30;45.85;;;28.55;;
58760;SDS011;44529;47.464;19.014;2023-02-15T00:33:33;44.47;;;26.55;;
58760;SDS011;44529;47.464;19.014;2023-02-15T00:36:35;38.03;;;24.70;;
58760;SDS011;44529;47.464;19.014;2023-02-15T00:39:38;41.00;;;25.40;;
58760;SDS011;44529;47.464;19.014;2023-02-15T00:42:40;39.25;;;25.70;;
58760;SDS011;44529;47.464;19.014;2023-02-15T00:45:42;38.40;;;24.50;;
58760;SDS011;44529;47.464;19.014;2023-02-15T00:48:46;35.83;;;23.48;;
58760;SDS011;44529;47.464;19.014;2023-02-15T00:51:48;36.42;;;23.67;;
58760;SDS011;44529;47.464;19.014;2023-02-15T00:54:51;39.45;;;24.27;;
58760;SDS011;44529;47.464;19.014;2023-02-15T00:57:53;37.97;;;24.40;;
58760;SDS011;44529;47.464;19.014;2023-02-15T01:01:01;40.12;;;23.02;;
58760;SDS011;44529;47.464;19.014;2023-02-15T01:04:08;35.45;;;23.02;;
58760;SDS011;44529;47.464;19.014;2023-02-15T01:07:11;39.65;;;24.35;;
58760;SDS011;44529;47.464;19.014;2023-02-15T01:10:13;38.00;;;24.73;;
58760;SDS011;44529;47.464;19.014;2023-02-15T01:13:16;34.95;;;22.08;;
58760;SDS011;44529;47.464;19.014;2023-02-15T01:16:19;35.40;;;22.77;;
58760;SDS011;44529;47.464;19.014;2023-02-15T01:19:22;35.50;;;22.55;;
58760;SDS011;44529;47.464;19.014;2023-02-15T01:22:24;34.10;;;22.40;;
58760;SDS011;44529;47.464;19.014;2023-02-15T01:25:29;34.88;;;22.05;;
58760;SDS011;44529;47.464;19.014;2023-02-15T01:28:31;35.67;;;22.33;;
58760;SDS011;44529;47.464;19.014;2023-02-15T01:31:35;37.10;;;22.00;;
58760;SDS011;44529;47.464;19.014;2023-02-15T01:34:37;32.83;;;20.67;;
58760;SDS011;44529;47.464;19.014;2023-02-15T01:37:40;35.45;;;21.67;;
58760;SDS011;44529;47.464;19.014;2023-02-15T01:40:42;32.45;;;20.98;;
58760;SDS011;44529;47.464;19.014;2023-02-15T01:43:47;33.70;;;21.23;;
58760;SDS011;44529;47.464;19.014;2023-02-15T01:46:54;35.38;;;21.70;;
58760;SDS011;44529;47.464;19.014;2023-02-15T01:49:59;34.47;;;21.92;;
58760;SDS011;44529;47.464;19.014;2023-02-15T01:53:25;30.65;;;21.23;;
58760;SDS011;44529;47.464;19.014;2023-02-15T01:56:33;35.00;;;21.10;;
58760;SDS011;44529;47.464;19.014;2023-02-15T01:59:37;34.88;;;20.55;;
58760;SDS011;44529;47.464;19.014;2023-02-15T02:02:45;32.03;;;20.83;;
58760;SDS011;44529;47.464;19.014;2023-02-15T02:05:51;33.50;;;20.92;;
58760;SDS011;44529;47.464;19.014;2023-02-15T02:08:54;30.90;;;20.42;;
58760;SDS011;44529;47.464;19.014;2023-02-15T02:11:57;32.67;;;21.20;;
58760;SDS011;44529;47.464;19.014;2023-02-15T02:15:00;34.17;;;20.75;;
58760;SDS011;44529;47.464;19.014;2023-02-15T02:18:08;31.37;;;20.17;;
58760;SDS011;44529;47.464;19.014;2023-02-15T02:31:44;35.07;;;21.03;;
58760;SDS011;44529;47.464;19.014;2023-02-15T02:41:46;31.65;;;20.48;;
58760;SDS011;44529;47.464;19.014;2023-02-15T02:44:52;33.40;;;20.95;;
58760;SDS011;44529;47.464;19.014;2023-02-15T02:48:05;31.75;;;20.73;;
58760;SDS011;44529;47.464;19.014;2023-02-15T02:51:11;34.67;;;20.52;;
58760;SDS011;44529;47.464;19.014;2023-02-15T02:54:16;32.10;;;19.83;;
58760;SDS011;44529;47.464;19.014;2023-02-15T02:57:18;31.67;;;20.80;;
58760;SDS011;44529;47.464;19.014;2023-02-15T03:00:25;34.30;;;20.60;;
58760;SDS011;44529;47.464;19.014;2023-02-15T03:10:00;31.62;;;19.60;;
58760;SDS011;44529;47.464;19.014;2023-02-15T03:13:05;30.75;;;20.08;;
58760;SDS011;44529;47.464;19.014;2023-02-15T03:16:09;31.92;;;19.70;;
58760;SDS011;44529;47.464;19.014;2023-02-15T03:19:30;32.22;;;21.12;;
58760;SDS011;44529;47.464;19.014;2023-02-15T03:22:38;31.85;;;20.12;;
58760;SDS011;44529;47.464;19.014;2023-02-15T03:26:06;32.75;;;20.25;;
58760;SDS011;44529;47.464;19.014;2023-02-15T03:29:11;31.62;;;20.65;;
58760;SDS011;44529;47.464;19.014;2023-02-15T03:32:16;32.35;;;19.95;;
58760;SDS011;44529;47.464;19.014;2023-02-15T03:35:20;32.17;;;19.85;;
58760;SDS011;44529;47.464;19.014;2023-02-15T03:38:32;32.78;;;20.25;;
58760;SDS011;44529;47.464;19.014;2023-02-15T03:41:44;30.48;;;20.02;;
58760;SDS011;44529;47.464;19.014;2023-02-15T03:44:58;33.78;;;21.10;;
58760;SDS011;44529;47.464;19.014;2023-02-15T03:48:00;29.27;;;19.37;;
58760;SDS011;44529;47.464;19.014;2023-02-15T03:51:09;33.42;;;20.10;;
58760;SDS011;44529;47.464;19.014;2023-02-15T03:54:34;31.62;;;19.85;;
58760;SDS011;44529;47.464;19.014;2023-02-15T03:57:50;31.17;;;19.83;;
58760;SDS011;44529;47.464;19.014;2023-02-15T04:05:02;33.13;;;19.58;;
58760;SDS011;44529;47.464;19.014;2023-02-15T04:08:05;32.88;;;21.10;;
58760;SDS011;44529;47.464;19.014;2023-02-15T04:11:07;32.42;;;19.60;;
58760;SDS011;44529;47.464;19.014;2023-02-15T04:14:10;29.83;;;18.90;;
58760;SDS011;44529;47.464;19.014;2023-02-15T04:20:35;31.02;;;19.20;;
58760;SDS011;44529;47.464;19.014;2023-02-15T04:27:17;31.02;;;19.25;;
58760;SDS011;44529;47.464;19.014;2023-02-15T04:30:21;31.95;;;20.30;;
58760;SDS011;44529;47.464;19.014;2023-02-15T04:33:25;33.92;;;21.27;;
58760;SDS011;44529;47.464;19.014;2023-02-15T04:36:28;34.70;;;20.92;;
58760;SDS011;44529;47.464;19.014;2023-02-15T04:39:30;35.85;;;20.37;;
58760;SDS011;44529;47.464;19.014;2023-02-15T04:42:34;28.35;;;18.65;;
58760;SDS011;44529;47.464;19.014;2023-02-15T04:45:37;27.73;;;19.05;;
58760;SDS011;44529;47.464;19.014;2023-02-15T04:48:39;31.95;;;19.77;;
58760;SDS011;44529;47.464;19.014;2023-02-15T04:51:41;32.13;;;19.42;;
58760;SDS011;44529;47.464;19.014;2023-02-15T04:54:44;27.23;;;18.92;;
58760;SDS011;44529;47.464;19.014;2023-02-15T04:57:47;30.20;;;18.58;;
58760;SDS011;44529;47.464;19.014;2023-02-15T05:00:49;31.98;;;19.55;;
58760;SDS011;44529;47.464;19.014;2023-02-15T05:03:52;31.02;;;19.67;;
58760;SDS011;44529;47.464;19.014;2023-02-15T05:06:54;28.58;;;18.83;;
58760;SDS011;44529;47.464;19.014;2023-02-15T05:09:57;30.20;;;18.42;;
58760;SDS011;44529;47.464;19.014;2023-02-15T05:13:01;32.17;;;20.42;;
58760;SDS011;44529;47.464;19.014;2023-02-15T05:16:05;32.13;;;20.20;;
58760;SDS011;44529;47.464;19.014;2023-02-15T05:19:08;35.20;;;20.62;;
58760;SDS011;44529;47.464;19.014;2023-02-15T05:22:10;30.77;;;19.83;;
58760;SDS011;44529;47.464;19.014;2023-02-15T05:25:12;29.85;;;18.70;;
58760;SDS011;44529;47.464;19.014;2023-02-15T05:28:34;34.20;;;19.62;;
58760;SDS011;44529;47.464;19.014;2023-02-15T05:31:40;32.88;;;19.08;;
58760;SDS011;44529;47.464;19.014;2023-02-15T05:34:43;30.55;;;18.77;;
58760;SDS011;44529;47.464;19.014;2023-02-15T05:37:45;34.05;;;19.65;;
58760;SDS011;44529;47.464;19.014;2023-02-15T05:40:48;32.25;;;19.55;;
58760;SDS011;44529;47.464;19.014;2023-02-15T05:43:51;31.35;;;18.67;;
58760;SDS011;44529;47.464;19.014;2023-02-15T05:46:56;29.05;;;18.45;;
58760;SDS011;44529;47.464;19.014;2023-02-15T05:49:59;30.55;;;18.15;;
58760;SDS011;44529;47.464;19.014;2023-02-15T05:53:01;33.40;;;19.65;;
58760;SDS011;44529;47.464;19.014;2023-02-15T05:56:04;33.42;;;18.65;;
58760;SDS011;44529;47.464;19.014;2023-02-15T05:59:08;32.55;;;19.52;;
58760;SDS011;44529;47.464;19.014;2023-02-15T06:02:11;36.97;;;20.77;;
58760;SDS011;44529;47.464;19.014;2023-02-15T06:05:14;38.35;;;20.80;;
58760;SDS011;44529;47.464;19.014;2023-02-15T06:08:16;28.45;;;19.05;;
58760;SDS011;44529;47.464;19.014;2023-02-15T06:11:19;32.25;;;20.65;;
58760;SDS011;44529;47.464;19.014;2023-02-15T06:14:21;37.13;;;19.08;;
58760;SDS011;44529;47.464;19.014;2023-02-15T06:17:24;35.05;;;19.98;;
58760;SDS011;44529;47.464;19.014;2023-02-15T06:20:26;36.72;;;20.27;;
58760;SDS011;44529;47.464;19.014;2023-02-15T06:23:29;32.88;;;19.33;;
58760;SDS011;44529;47.464;19.014;2023-02-15T06:26:32;32.45;;;20.50;;
58760;SDS011;44529;47.464;19.014;2023-02-15T06:29:35;37.08;;;20.40;;
58760;SDS011;44529;47.464;19.014;2023-02-15T06:32:39;34.85;;;19.95;;
58760;SDS011;44529;47.464;19.014;2023-02-15T06:35:42;32.85;;;20.17;;
58760;SDS011;44529;47.464;19.014;2023-02-15T06:38:45;37.85;;;20.55;;
58760;SDS011;44529;47.464;19.014;2023-02-15T06:41:47;35.17;;;19.58;;
58760;SDS011;44529;47.464;19.014;2023-02-15T06:44:50;37.05;;;20.42;;
58760;SDS011;44529;47.464;19.014;2023-02-15T06:47:55;38.05;;;20.62;;
58760;SDS011;44529;47.464;19.014;2023-02-15T06:50:58;39.67;;;20.67;;
58760;SDS011;44529;47.464;19.014;2023-02-15T06:54:00;41.17;;;21.25;;
58760;SDS011;44529;47.464;19.014;2023-02-15T06:57:03;43.78;;;20.55;;
58760;SDS011;44529;47.464;19.014;2023-02-15T07:00:05;39.22;;;21.37;;
58760;SDS011;44529;47.464;19.014;2023-02-15T07:03:08;37.47;;;21.45;;
58760;SDS011;44529;47.464;19.014;2023-02-15T07:06:11;33.50;;;20.75;;
58760;SDS011;44529;47.464;19.014;2023-02-15T07:09:15;37.25;;;22.87;;
58760;SDS011;44529;47.464;19.014;2023-02-15T07:12:18;36.78;;;23.80;;
58760;SDS011;44529;47.464;19.014;2023-02-15T07:18:45;123.15;;;28.05;;
58760;SDS011;44529;47.464;19.014;2023-02-15T07:21:47;43.25;;;26.08;;
58760;SDS011;44529;47.464;19.014;2023-02-15T07:24:50;43.00;;;24.08;;
58760;SDS011;44529;47.464;19.014;2023-02-15T07:27:59;46.60;;;25.15;;
58760;SDS011;44529;47.464;19.014;2023-02-15T07:31:04;46.30;;;24.98;;
58760;SDS011;44529;47.464;19.014;2023-02-15T07:34:07;40.45;;;23.33;;
58760;SDS011;44529;47.464;19.014;2023-02-15T07:37:10;41.10;;;25.15;;
58760;SDS011;44529;47.464;19.014;2023-02-15T07:40:13;41.33;;;24.37;;
58760;SDS011;44529;47.464;19.014;2023-02-15T07:43:18;48.63;;;26.52;;
58760;SDS011;44529;47.464;19.014;2023-02-15T07:46:20;43.22;;;24.35;;
58760;SDS011;44529;47.464;19.014;2023-02-15T07:49:23;39.95;;;23.70;;
58760;SDS011;44529;47.464;19.014;2023-02-15T07:52:26;38.95;;;23.42;;
58760;SDS011;44529;47.464;19.014;2023-02-15T07:55:29;64.20;;;25.70;;
58760;SDS011;44529;47.464;19.014;2023-02-15T07:58:33;40.78;;;24.30;;
58760;SDS011;44529;47.464;19.014;2023-02-15T08:01:57;41.15;;;24.00;;
58760;SDS011;44529;47.464;19.014;2023-02-15T08:05:05;40.55;;;24.80;;
58760;SDS011;44529;47.464;19.014;2023-02-15T08:08:08;38.03;;;25.17;;
58760;SDS011;44529;47.464;19.014;2023-02-15T08:11:32;44.78;;;26.40;;
58760;SDS011;44529;47.464;19.014;2023-02-15T08:14:52;42.47;;;24.87;;
58760;SDS011;44529;47.464;19.014;2023-02-15T08:17:55;45.08;;;26.73;;
58760;SDS011;44529;47.464;19.014;2023-02-15T08:20:58;39.88;;;25.25;;
58760;SDS011;44529;47.464;19.014;2023-02-15T08:24:02;41.63;;;25.75;;
58760;SDS011;44529;47.464;19.014;2023-02-15T08:27:07;47.35;;;27.27;;
58760;SDS011;44529;47.464;19.014;2023-02-15T08:30:13;42.95;;;27.25;;
58760;SDS011;44529;47.464;19.014;2023-02-15T08:33:18;45.10;;;26.08;;
58760;SDS011;44529;47.464;19.014;2023-02-15T08:36:22;40.40;;;26.05;;
58760;SDS011;44529;47.464;19.014;2023-02-15T08:39:27;42.72;;;26.37;;
58760;SDS011;44529;47.464;19.014;2023-02-15T08:42:32;44.80;;;27.10;;
58760;SDS011;44529;47.464;19.014;2023-02-15T08:45:35;44.38;;;26.80;;
58760;SDS011;44529;47.464;19.014;2023-02-15T08:48:38;42.65;;;26.50;;
58760;SDS011;44529;47.464;19.014;2023-02-15T08:51:40;44.95;;;28.58;;
58760;SDS011;44529;47.464;19.014;2023-02-15T08:54:43;43.40;;;27.92;;
58760;SDS011;44529;47.464;19.014;2023-02-15T08:57:47;46.35;;;28.25;;
58760;SDS011;44529;47.464;19.014;2023-02-15T09:00:52;44.83;;;27.62;;
58760;SDS011;44529;47.464;19.014;2023-02-15T09:03:56;40.63;;;27.92;;
58760;SDS011;44529;47.464;19.014;2023-02-15T09:07:00;44.35;;;27.80;;
58760;SDS011;44529;47.464;19.014;2023-02-15T09:10:04;46.53;;;28.58;;
58760;SDS011;44529;47.464;19.014;2023-02-15T09:13:07;40.60;;;27.10;;
58760;SDS011;44529;47.464;19.014;2023-02-15T09:16:09;44.42;;;28.30;;
58760;SDS011;44529;47.464;19.014;2023-02-15T09:19:12;42.72;;;27.27;;
58760;SDS011;44529;47.464;19.014;2023-02-15T09:22:15;50.10;;;27.15;;
58760;SDS011;44529;47.464;19.014;2023-02-15T09:25:17;43.87;;;27.98;;
58760;SDS011;44529;47.464;19.014;2023-02-15T09:28:19;44.05;;;27.65;;
58760;SDS011;44529;47.464;19.014;2023-02-15T09:31:23;42.75;;;27.23;;
58760;SDS011;44529;47.464;19.014;2023-02-15T09:34:27;42.88;;;27.90;;
58760;SDS011;44529;47.464;19.014;2023-02-15T09:37:30;50.80;;;28.85;;
58760;SDS011;44529;47.464;19.014;2023-02-15T09:40:34;42.50;;;28.40;;
58760;SDS011;44529;47.464;19.014;2023-02-15T09:47:07;42.17;;;29.08;;
58760;SDS011;44529;47.464;19.014;2023-02-15T09:57:18;41.13;;;26.92;;
58760;SDS011;44529;47.464;19.014;2023-02-15T10:04:00;47.42;;;28.40;;
58760;SDS011;44529;47.464;19.014;2023-02-15T10:10:48;46.17;;;29.67;;
58760;SDS011;44529;47.464;19.014;2023-02-15T10:22:04;53.10;;;30.58;;
58760;SDS011;44529;47.464;19.014;2023-02-15T10:31:58;42.05;;;28.17;;
58760;SDS011;44529;47.464;19.014;2023-02-15T10:35:25;42.13;;;27.80;;
58760;SDS011;44529;47.464;19.014;2023-02-15T10:45:21;43.20;;;27.65;;
58760;SDS011;44529;47.464;19.014;2023-02-15T11:04:55;44.15;;;29.12;;
58760;SDS011;44529;47.464;19.014;2023-02-15T11:08:17;45.92;;;29.77;;
58760;SDS011;44529;47.464;19.014;2023-02-15T11:11:22;46.33;;;30.83;;
58760;SDS011;44529;47.464;19.014;2023-02-15T11:17:46;38.72;;;24.50;;
58760;SDS011;44529;47.464;19.014;2023-02-15T11:24:19;39.72;;;24.20;;
58760;SDS011;44529;47.464;19.014;2023-02-15T11:27:23;45.72;;;26.05;;
58760;SDS011;44529;47.464;19.014;2023-02-15T11:30:34;38.05;;;27.05;;
58760;SDS011;44529;47.464;19.014;2023-02-15T11:33:47;42.50;;;27.48;;
58760;SDS011;44529;47.464;19.014;2023-02-15T11:36:55;38.83;;;26.58;;
58760;SDS011;44529;47.464;19.014;2023-02-15T11:40:03;43.28;;;28.73;;
58760;SDS011;44529;47.464;19.014;2023-02-15T11:46:45;42.95;;;27.87;;
58760;SDS011;44529;47.464;19.014;2023-02-15T11:49:48;40.17;;;26.20;;
58760;SDS011;44529;47.464;19.014;2023-02-15T11:52:50;37.55;;;25.05;;
58760;SDS011;44529;47.464;19.014;2023-02-15T11:55:55;38.30;;;25.85;;
58760;SDS011;44529;47.464;19.014;2023-02-15T11:59:05;38.83;;;25.77;;
58760;SDS011;44529;47.464;19.014;2023-02-15T12:02:19;36.05;;;24.48;;
58760;SDS011;44529;47.464;19.014;2023-02-15T12:05:24;34.75;;;24.35;;
58760;SDS011;44529;47.464;19.014;2023-02-15T12:08:32;36.10;;;25.20;;
58760;SDS011;44529;47.464;19.014;2023-02-15T12:11:41;38.22;;;25.40;;
58760;SDS011;44529;47.464;19.014;2023-02-15T12:14:47;37.00;;;25.40;;
58760;SDS011;44529;47.464;19.014;2023-02-15T12:17:52;32.88;;;23.58;;
58760;SDS011;44529;47.464;19.014;2023-02-15T12:20:59;37.88;;;23.27;;
58760;SDS011;44529;47.464;19.014;2023-02-15T12:24:19;36.38;;;23.27;;
58760;SDS011;44529;47.464;19.014;2023-02-15T12:27:26;36.78;;;23.80;;
58760;SDS011;44529;47.464;19.014;2023-02-15T12:30:32;39.80;;;24.77;;
58760;SDS011;44529;47.464;19.014;2023-02-15T12:33:41;34.35;;;23.35;;
58760;SDS011;44529;47.464;19.014;2023-02-15T12:36:48;32.72;;;22.67;;
58760;SDS011;44529;47.464;19.014;2023-02-15T12:40:00;31.17;;;21.75;;
58760;SDS011;44529;47.464;19.014;2023-02-15T12:43:04;27.48;;;19.50;;
58760;SDS011;44529;47.464;19.014;2023-02-15T12:46:21;28.23;;;19.85;;
58760;SDS011;44529;47.464;19.014;2023-02-15T12:49:27;27.35;;;19.42;;
58760;SDS011;44529;47.464;19.014;2023-02-15T12:52:31;30.75;;;20.17;;
58760;SDS011;44529;47.464;19.014;2023-02-15T12:55:33;29.08;;;20.08;;
58760;SDS011;44529;47.464;19.014;2023-02-15T12:58:37;29.17;;;20.20;;
58760;SDS011;44529;47.464;19.014;2023-02-15T13:01:41;27.33;;;19.40;;
58760;SDS011;44529;47.464;19.014;2023-02-15T13:04:47;27.35;;;19.62;;
58760;SDS011;44529;47.464;19.014;2023-02-15T13:07:53;36.38;;;20.65;;
58760;SDS011;44529;47.464;19.014;2023-02-15T13:11:04;30.45;;;20.88;;
58760;SDS011;44529;47.464;19.014;2023-02-15T13:14:17;25.88;;;18.65;;
58760;SDS011;44529;47.464;19.014;2023-02-15T13:17:26;28.30;;;17.33;;
58760;SDS011;44529;47.464;19.014;2023-02-15T13:20:34;28.62;;;18.20;;
58760;SDS011;44529;47.464;19.014;2023-02-15T13:23:57;28.65;;;19.67;;
58760;SDS011;44529;47.464;19.014;2023-02-15T13:27:18;31.73;;;21.02;;
58760;SDS011;44529;47.464;19.014;2023-02-15T13:30:31;29.25;;;19.80;;
58760;SDS011;44529;47.464;19.014;2023-02-15T13:33:38;29.42;;;20.40;;
58760;SDS011;44529;47.464;19.014;2023-02-15T13:40:52;29.73;;;20.62;;
58760;SDS011;44529;47.464;19.014;2023-02-15T13:47:50;30.20;;;20.20;;
58760;SDS011;44529;47.464;19.014;2023-02-15T14:01:52;27.77;;;18.75;;
58760;SDS011;44529;47.464;19.014;2023-02-15T14:15:42;29.42;;;20.17;;
58760;SDS011;44529;47.464;19.014;2023-02-15T14:18:57;26.75;;;18.85;;
58760;SDS011;44529;47.464;19.014;2023-02-15T14:25:28;29.63;;;19.25;;
58760;SDS011;44529;47.464;19.014;2023-02-15T14:31:57;27.13;;;18.45;;
58760;SDS011;44529;47.464;19.014;2023-02-15T14:35:16;30.58;;;20.23;;
58760;SDS011;44529;47.464;19.014;2023-02-15T14:42:10;28.02;;;20.35;;
58760;SDS011;44529;47.464;19.014;2023-02-15T14:45:27;27.33;;;20.88;;
58760;SDS011;44529;47.464;19.014;2023-02-15T14:57:57;34.80;;;20.55;;
58760;SDS011;44529;47.464;19.014;2023-02-15T15:01:04;32.15;;;20.50;;
58760;SDS011;44529;47.464;19.014;2023-02-15T15:04:55;29.87;;;19.50;;
58760;SDS011;44529;47.464;19.014;2023-02-15T15:07:45;32.28;;;21.42;;
58760;SDS011;44529;47.464;19.014;2023-02-15T15:11:36;31.00;;;20.77;;
58760;SDS011;44529;47.464;19.014;2023-02-15T15:14:45;29.87;;;21.10;;
58760;SDS011;44529;47.464;19.014;2023-02-15T15:17:52;30.80;;;21.10;;
58760;SDS011;44529;47.464;19.014;2023-02-15T15:20:55;30.05;;;21.45;;
58760;SDS011;44529;47.464;19.014;2023-02-15T15:23:58;34.03;;;21.62;;
58760;SDS011;44529;47.464;19.014;2023-02-15T15:37:58;31.00;;;21.52;;
58760;SDS011;44529;47.464;19.014;2023-02-15T15:51:39;35.60;;;22.73;;
58760;SDS011;44529;47.464;19.014;2023-02-15T15:54:44;34.08;;;22.10;;
58760;SDS011;44529;47.464;19.014;2023-02-15T15:57:50;31.50;;;22.33;;
58760;SDS011;44529;47.464;19.014;2023-02-15T16:00:55;32.63;;;21.37;;
58760;SDS011;44529;47.464;19.014;2023-02-15T16:04:05;35.22;;;22.42;;
58760;SDS011;44529;47.464;19.014;2023-02-15T16:10:21;36.00;;;22.13;;
58760;SDS011;44529;47.464;19.014;2023-02-15T16:13:23;39.17;;;23.90;;
58760;SDS011;44529;47.464;19.014;2023-02-15T16:16:27;38.85;;;24.80;;
58760;SDS011;44529;47.464;19.014;2023-02-15T16:19:40;42.95;;;26.10;;
58760;SDS011;44529;47.464;19.014;2023-02-15T16:22:45;34.70;;;23.52;;
58760;SDS011;44529;47.464;19.014;2023-02-15T16:29:17;35.05;;;23.27;;
58760;SDS011;44529;47.464;19.014;2023-02-15T16:32:27;36.55;;;23.15;;
58760;SDS011;44529;47.464;19.014;2023-02-15T16:35:30;39.85;;;24.60;;
58760;SDS011;44529;47.464;19.014;2023-02-15T16:41:44;36.58;;;23.75;;
58760;SDS011;44529;47.464;19.014;2023-02-15T16:45:36;36.40;;;24.20;;
58760;SDS011;44529;47.464;19.014;2023-02-15T16:48:20;38.13;;;23.83;;
58760;SDS011;44529;47.464;19.014;2023-02-15T16:51:27;33.30;;;23.70;;
58760;SDS011;44529;47.464;19.014;2023-02-15T16:54:32;34.20;;;23.27;;
58760;SDS011;44529;47.464;19.014;2023-02-15T16:57:37;38.17;;;26.42;;
58760;SDS011;44529;47.464;19.014;2023-02-15T17:00:40;41.95;;;25.48;;
58760;SDS011;44529;47.464;19.014;2023-02-15T17:03:43;42.30;;;25.62;;
58760;SDS011;44529;47.464;19.014;2023-02-15T17:06:59;45.03;;;26.58;;
58760;SDS011;44529;47.464;19.014;2023-02-15T17:17:12;48.13;;;30.98;;
58760;SDS011;44529;47.464;19.014;2023-02-15T17:20:17;53.65;;;31.58;;
58760;SDS011;44529;47.464;19.014;2023-02-15T17:23:29;52.88;;;32.63;;
58760;SDS011;44529;47.464;19.014;2023-02-15T17:26:35;55.50;;;32.47;;
58760;SDS011;44529;47.464;19.014;2023-02-15T17:29:41;56.97;;;32.60;;
58760;SDS011;44529;47.464;19.014;2023-02-15T17:32:55;60.22;;;32.78;;
58760;SDS011;44529;47.464;19.014;2023-02-15T17:36:09;55.05;;;33.78;;
58760;SDS011;44529;47.464;19.014;2023-02-15T17:39:19;59.00;;;33.40;;
58760;SDS011;44529;47.464;19.014;2023-02-15T17:42:24;62.42;;;35.47;;
58760;SDS011;44529;47.464;19.014;2023-02-15T17:45:31;58.60;;;35.35;;
58760;SDS011;44529;47.464;19.014;2023-02-15T17:48:37;56.70;;;35.10;;
58760;SDS011;44529;47.464;19.014;2023-02-15T17:51:43;52.75;;;33.20;;
58760;SDS011;44529;47.464;19.014;2023-02-15T17:54:45;54.15;;;34.22;;
58760;SDS011;44529;47.464;19.014;2023-02-15T18:01:14;63.97;;;33.85;;
58760;SDS011;44529;47.464;19.014;2023-02-15T18:04:39;55.47;;;34.20;;
58760;SDS011;44529;47.464;19.014;2023-02-15T18:08:00;58.65;;;34.38;;
58760;SDS011;44529;47.464;19.014;2023-02-15T18:14:39;58.38;;;34.63;;
58760;SDS011;44529;47.464;19.014;2023-02-15T18:17:42;62.83;;;36.20;;
58760;SDS011;44529;47.464;19.014;2023-02-15T18:20:46;56.17;;;35.45;;
58760;SDS011;44529;47.464;19.014;2023-02-15T18:23:49;55.67;;;33.88;;
58760;SDS011;44529;47.464;19.014;2023-02-15T18:26:52;56.63;;;34.33;;
58760;SDS011;44529;47.464;19.014;2023-02-15T18:29:55;57.15;;;35.90;;
58760;SDS011;44529;47.464;19.014;2023-02-15T18:32:57;59.45;;;35.88;;
58760;SDS011;44529;47.464;19.014;2023-02-15T18:36:01;60.25;;;35.45;;
58760;SDS011;44529;47.464;19.014;2023-02-15T18:39:05;59.97;;;37.47;;
58760;SDS011;44529;47.464;19.014;2023-02-15T18:42:35;66.05;;;40.83;;
58760;SDS011;44529;47.464;19.014;2023-02-15T18:45:38;73.00;;;42.95;;
58760;SDS011;44529;47.464;19.014;2023-02-15T18:48:42;76.03;;;45.05;;
58760;SDS011;44529;47.464;19.014;2023-02-15T18:51:45;82.45;;;48.33;;
58760;SDS011;44529;47.464;19.014;2023-02-15T18:54:51;81.15;;;49.20;;
58760;SDS011;44529;47.464;19.014;2023-02-15T18:57:56;86.50;;;51.97;;
58760;SDS011;44529;47.464;19.014;2023-02-15T19:00:59;86.72;;;50.65;;
58760;SDS011;44529;47.464;19.014;2023-02-15T19:04:01;81.47;;;49.33;;
58760;SDS011;44529;47.464;19.014;2023-02-15T19:07:04;86.85;;;50.35;;
58760;SDS011;44529;47.464;19.014;2023-02-15T19:10:07;90.20;;;50.28;;
58760;SDS011;44529;47.464;19.014;2023-02-15T19:13:15;94.43;;;51.10;;
58760;SDS011;44529;47.464;19.014;2023-02-15T19:16:25;87.03;;;51.15;;
58760;SDS011;44529;47.464;19.014;2023-02-15T19:19:30;89.80;;;50.95;;
58760;SDS011;44529;47.464;19.014;2023-02-15T19:22:32;89.28;;;47.78;;
58760;SDS011;44529;47.464;19.014;2023-02-15T19:25:36;81.87;;;46.50;;
58760;SDS011;44529;47.464;19.014;2023-02-15T19:28:40;85.20;;;49.10;;
58760;SDS011;44529;47.464;19.014;2023-02-15T19:31:43;95.72;;;53.38;;
58760;SDS011;44529;47.464;19.014;2023-02-15T19:34:45;86.45;;;51.17;;
58760;SDS011;44529;47.464;19.014;2023-02-15T19:37:49;84.82;;;50.40;;
58760;SDS011;44529;47.464;19.014;2023-02-15T19:40:55;80.43;;;47.80;;
58760;SDS011;44529;47.464;19.014;2023-02-15T19:44:06;82.78;;;48.70;;
58760;SDS011;44529;47.464;19.014;2023-02-15T19:47:12;83.57;;;47.47;;
58760;SDS011;44529;47.464;19.014;2023-02-15T19:50:16;78.60;;;46.47;;
58760;SDS011;44529;47.464;19.014;2023-02-15T19:53:21;75.72;;;44.58;;
58760;SDS011;44529;47.464;19.014;2023-02-15T19:56:27;75.30;;;43.10;;
58760;SDS011;44529;47.464;19.014;2023-02-15T19:59:30;70.60;;;43.22;;
58760;SDS011;44529;47.464;19.014;2023-02-15T20:02:35;77.28;;;43.80;;
58760;SDS011;44529;47.464;19.014;2023-02-15T20:05:37;73.80;;;42.92;;
58760;SDS011;44529;47.464;19.014;2023-02-15T20:08:40;76.10;;;42.88;;
58760;SDS011;44529;47.464;19.014;2023-02-15T20:11:45;74.75;;;42.83;;
58760;SDS011;44529;47.464;19.014;2023-02-15T20:14:48;77.12;;;42.15;;
58760;SDS011;44529;47.464;19.014;2023-02-15T20:17:52;70.53;;;41.28;;
58760;SDS011;44529;47.464;19.014;2023-02-15T20:20:55;73.57;;;41.17;;
58760;SDS011;44529;47.464;19.014;2023-02-15T20:23:58;75.03;;;42.45;;
58760;SDS011;44529;47.464;19.014;2023-02-15T20:27:02;73.90;;;42.83;;
58760;SDS011;44529;47.464;19.014;2023-02-15T20:30:05;68.68;;;42.35;;
58760;SDS011;44529;47.464;19.014;2023-02-15T20:33:16;73.85;;;42.80;;
58760;SDS011;44529;47.464;19.014;2023-02-15T20:36:19;74.97;;;43.38;;
58760;SDS011;44529;47.464;19.014;2023-02-15T20:39:23;75.60;;;45.28;;
58760;SDS011;44529;47.464;19.014;2023-02-15T20:42:25;81.43;;;46.45;;
58760;SDS011;44529;47.464;19.014;2023-02-15T20:45:29;75.00;;;44.92;;
58760;SDS011;44529;47.464;19.014;2023-02-15T20:48:33;83.20;;;48.25;;
58760;SDS011;44529;47.464;19.014;2023-02-15T20:51:35;88.93;;;48.10;;
58760;SDS011;44529;47.464;19.014;2023-02-15T20:54:38;86.70;;;48.97;;
58760;SDS011;44529;47.464;19.014;2023-02-15T20:57:40;82.82;;;49.50;;
58760;SDS011;44529;47.464;19.014;2023-02-15T21:00:43;80.70;;;48.85;;
58760;SDS011;44529;47.464;19.014;2023-02-15T21:03:45;77.28;;;47.30;;
58760;SDS011;44529;47.464;19.014;2023-02-15T21:06:48;82.10;;;47.15;;
58760;SDS011;44529;47.464;19.014;2023-02-15T21:09:50;75.03;;;43.28;;